Time;durP1;ratioP1;P1;durP2;ratioP2;P2;SDS_P1;SDS_P2;PMS_P1;PMS_P2;Temp;Humidity;BMP_temperature;BMP_pressure;BME280_temperature;BME280_humidity;BME280_pressure;Samples;Min_cycle;Max_cycle;Signal;HPM_P1;HPM_P2
2022/07/23 00:00:49;;;;;;;1999.90;999.90;;;13.00;99.90;;;;;;5113701;27;20143;-79
2022/07/23 00:03:15;;;;;;;1999.90;999.90;;;13.00;99.90;;;;;;5112013;27;20481;-80
2022/07/23 00:05:40;;;;;;;1999.90;999.90;;;13.00;99.90;;;;;;5102985;27;20039;-79
2022/07/23 00:08:07;;;;;;;1999.90;999.90;;;13.00;99.90;;;;;;5123781;27;20040;-79
2022/07/23 00:10:33;;;;;;;1999.90;999.90;;;13.00;99.90;;;;;;5102430;27;20114;-80
2022/07/23 00:12:59;;;;;;;1999.90;999.90;;;13.00;99.90;;;;;;5128347;27;20171;-80
2022/07/23 00:15:25;;;;;;;1999.90;999.90;;;13.00;99.90;;;;;;5112491;27;20117;-79
2022/07/23 00:17:51;;;;;;;1999.90;999.90;;;13.00;99.90;;;;;;5099360;27;20115;-79
2022/07/23 00:20:17;;;;;;;1999.90;999.90;;;13.10;99.90;;;;;;5112683;27;20084;-79
2022/07/23 00:22:51;;;;;;;1999.90;999.90;;;13.10;99.90;;;;;;5094817;27;20043;-80
2022/07/23 00:25:17;;;;;;;1999.90;999.90;;;13.10;99.90;;;;;;5129393;27;20042;-80
2022/07/23 00:27:43;;;;;;;1999.90;999.90;;;13.10;99.90;;;;;;5106652;27;20039;-79
2022/07/23 00:30:10;;;;;;;1999.90;999.90;;;13.10;99.90;;;;;;5100641;27;20031;-79
2022/07/23 00:32:50;;;;;;;1999.90;999.90;;;13.10;99.90;;;;;;5096801;27;20172;-79
2022/07/23 00:35:19;;;;;;;1999.90;999.90;;;13.10;99.90;;;;;;5111865;27;20038;-79
2022/07/23 00:37:45;;;;;;;1999.90;999.90;;;13.10;99.90;;;;;;5119923;27;20074;-79
2022/07/23 00:40:11;;;;;;;1999.90;999.90;;;13.00;99.90;;;;;;5122711;27;22488;-79
2022/07/23 00:42:37;;;;;;;1999.90;999.90;;;13.00;99.90;;;;;;5109564;27;20048;-79
2022/07/23 00:45:03;;;;;;;1999.90;999.90;;;13.00;99.90;;;;;;5109214;27;20128;-79
2022/07/23 00:47:29;;;;;;;1999.90;999.90;;;12.90;99.90;;;;;;5093431;27;20088;-79
2022/07/23 00:49:54;;;;;;;1999.90;999.90;;;12.90;99.90;;;;;;5110328;27;20044;-79
2022/07/23 00:52:20;;;;;;;1999.90;999.90;;;12.80;99.90;;;;;;5125328;27;20043;-79
2022/07/23 00:54:46;;;;;;;1999.90;999.90;;;12.80;99.90;;;;;;5115192;27;20031;-78
2022/07/23 00:57:12;;;;;;;1999.90;999.90;;;12.80;99.90;;;;;;5092436;28;20043;-79
2022/07/23 00:59:41;;;;;;;1999.90;999.90;;;12.70;99.90;;;;;;5094261;27;20035;-79
2022/07/23 01:02:07;;;;;;;1999.90;999.90;;;12.60;99.90;;;;;;5096682;27;20137;-78
2022/07/23 01:04:33;;;;;;;1999.90;999.90;;;12.60;99.90;;;;;;5098693;27;20044;-79
2022/07/23 01:06:59;;;;;;;1999.90;999.90;;;12.50;99.90;;;;;;5091500;27;20047;-78
2022/07/23 01:09:26;;;;;;;1999.90;999.90;;;12.40;99.90;;;;;;5106068;27;20059;-79
2022/07/23 01:11:54;;;;;;;1999.90;999.90;;;12.40;99.90;;;;;;5107473;27;20045;-79
2022/07/23 01:14:19;;;;;;;1999.90;999.90;;;12.30;99.90;;;;;;5103817;27;20040;-79
2022/07/23 01:16:47;;;;;;;1999.90;999.90;;;12.30;99.90;;;;;;5092800;27;20388;-79
2022/07/23 01:19:13;;;;;;;1999.90;999.90;;;12.20;99.90;;;;;;5092759;28;20039;-79
2022/07/23 01:21:42;;;;;;;1999.90;999.90;;;12.20;99.90;;;;;;5115768;27;20795;-79
2022/07/23 01:24:08;;;;;;;1999.90;999.90;;;12.10;99.90;;;;;;5090229;27;20546;-79
2022/07/23 01:26:35;;;;;;;1999.90;999.90;;;12.10;99.90;;;;;;5100807;27;20448;-79
2022/07/23 01:29:01;;;;;;;1999.90;999.90;;;12.00;99.90;;;;;;5091980;28;20120;-80
2022/07/23 01:31:27;;;;;;;1999.90;999.90;;;11.90;99.90;;;;;;5091725;27;20101;-79
2022/07/23 01:33:52;;;;;;;1999.90;999.90;;;11.90;99.90;;;;;;5115679;27;20058;-79
2022/07/23 01:36:18;;;;;;;1999.90;999.90;;;11.90;99.90;;;;;;5092374;27;20569;-79
2022/07/23 01:38:44;;;;;;;1999.90;999.90;;;11.80;99.90;;;;;;5115581;27;20047;-79
2022/07/23 01:41:10;;;;;;;1999.90;999.90;;;11.80;99.90;;;;;;5095160;28;20036;-79
2022/07/23 01:43:36;;;;;;;1999.90;999.90;;;11.70;99.90;;;;;;5096581;27;20074;-79
2022/07/23 01:46:01;;;;;;;1999.90;999.90;;;11.70;99.90;;;;;;5091334;27;20039;-79
2022/07/23 01:48:27;;;;;;;1999.90;999.90;;;11.60;99.90;;;;;;5097801;27;20491;-79
2022/07/23 01:50:52;;;;;;;1999.90;999.90;;;11.60;99.90;;;;;;5092368;28;20046;-79
2022/07/23 01:53:18;;;;;;;1999.90;999.90;;;11.50;99.90;;;;;;5096753;27;20051;-79
2022/07/23 01:55:44;;;;;;;1999.90;999.90;;;11.50;99.90;;;;;;5094526;27;20047;-79
2022/07/23 01:58:09;;;;;;;1999.90;999.90;;;11.40;99.90;;;;;;5116761;27;20035;-79
2022/07/23 02:00:35;;;;;;;1999.90;999.90;;;11.40;99.90;;;;;;5101751;27;20039;-79
2022/07/23 02:03:01;;;;;;;1999.90;999.90;;;11.40;99.90;;;;;;5120892;27;20043;-79
2022/07/23 02:05:31;;;;;;;1999.90;999.90;;;11.30;99.90;;;;;;5090674;28;20118;-79
2022/07/23 02:07:58;;;;;;;1999.90;999.90;;;11.20;99.90;;;;;;5091433;28;20043;-79
2022/07/23 02:10:24;;;;;;;1999.90;999.90;;;11.20;99.90;;;;;;5108488;27;20043;-80
2022/07/23 02:12:50;;;;;;;1999.90;999.90;;;11.20;99.90;;;;;;5101564;27;20055;-79
2022/07/23 02:15:15;;;;;;;1999.90;999.90;;;11.10;99.90;;;;;;5106328;27;20110;-79
2022/07/23 02:17:41;;;;;;;1999.90;999.90;;;11.10;99.90;;;;;;5109614;27;20041;-79
2022/07/23 02:20:10;;;;;;;1999.90;999.90;;;11.00;99.90;;;;;;5089653;27;20120;-79
2022/07/23 02:22:36;;;;;;;1999.90;999.90;;;11.00;99.90;;;;;;5094414;27;20033;-79
2022/07/23 02:25:06;;;;;;;1999.90;999.90;;;11.00;99.90;;;;;;5116438;27;20118;-79
2022/07/23 02:27:32;;;;;;;1999.90;999.90;;;11.00;99.90;;;;;;5108715;27;20039;-79
2022/07/23 02:29:58;;;;;;;1999.90;999.90;;;10.90;99.90;;;;;;5108003;27;20044;-79
2022/07/23 02:32:24;;;;;;;1999.90;999.90;;;10.90;99.90;;;;;;5094152;27;20543;-79
2022/07/23 02:34:50;;;;;;;1999.90;999.90;;;10.80;99.90;;;;;;5105090;28;20165;-79
2022/07/23 02:37:16;;;;;;;1999.90;999.90;;;10.90;99.90;;;;;;5110627;27;20070;-80
2022/07/23 02:39:41;;;;;;;1999.90;999.90;;;10.90;99.90;;;;;;5107804;28;20473;-80
2022/07/23 02:42:07;;;;;;;1999.90;999.90;;;10.90;99.90;;;;;;5094575;28;20118;-80
2022/07/23 02:44:33;;;;;;;1999.90;999.90;;;10.90;99.90;;;;;;5088729;28;20043;-80
2022/07/23 02:46:58;;;;;;;1999.90;999.90;;;10.80;99.90;;;;;;5116060;27;20039;-80
2022/07/23 02:49:24;;;;;;;1999.90;999.90;;;10.80;99.90;;;;;;5089114;28;20050;-80
2022/07/23 02:51:50;;;;;;;1999.90;999.90;;;10.70;99.90;;;;;;5115789;28;20039;-80
2022/07/23 02:54:15;;;;;;;1999.90;999.90;;;10.70;99.90;;;;;;5114335;28;20790;-79
2022/07/23 02:56:41;;;;;;;1999.90;999.90;;;10.70;99.90;;;;;;5107475;28;20415;-79
2022/07/23 02:59:07;;;;;;;1999.90;999.90;;;10.60;99.90;;;;;;5119238;27;20028;-79
2022/07/23 03:01:33;;;;;;;1999.90;999.90;;;10.70;99.90;;;;;;5108289;28;20043;-79
2022/07/23 03:03:58;;;;;;;1999.90;999.90;;;10.60;99.90;;;;;;5104630;28;20051;-79
2022/07/23 03:06:24;;;;;;;1999.90;999.90;;;10.60;99.90;;;;;;5108503;28;20492;-79
2022/07/23 03:08:50;;;;;;;1999.90;999.90;;;10.60;99.90;;;;;;5107966;27;20050;-79
2022/07/23 03:11:15;;;;;;;1999.90;999.90;;;10.50;99.90;;;;;;5109092;28;20039;-79
2022/07/23 03:13:41;;;;;;;1999.90;999.90;;;10.50;99.90;;;;;;5093244;28;20035;-79
2022/07/23 03:16:07;;;;;;;1999.90;999.90;;;10.50;99.90;;;;;;5114448;28;20379;-79
2022/07/23 03:18:33;;;;;;;1999.90;999.90;;;10.40;99.90;;;;;;5093502;28;20135;-79
2022/07/23 03:20:59;;;;;;;1999.90;999.90;;;10.50;99.90;;;;;;5092552;28;20096;-79
2022/07/23 03:23:25;;;;;;;1999.90;999.90;;;10.40;99.90;;;;;;5089920;28;20527;-79
2022/07/23 03:25:50;;;;;;;1999.90;999.90;;;10.50;99.90;;;;;;5109083;28;20039;-78
2022/07/23 03:28:17;;;;;;;1999.90;999.90;;;10.40;99.90;;;;;;5105646;28;20089;-79
2022/07/23 03:30:46;;;;;;;1999.90;999.90;;;10.40;99.90;;;;;;5109989;28;20148;-79
2022/07/23 03:33:12;;;;;;;1999.90;999.90;;;10.30;99.90;;;;;;5106962;28;20433;-79
2022/07/23 03:35:38;;;;;;;1999.90;999.90;;;10.30;99.90;;;;;;5107975;28;20040;-79
2022/07/23 03:38:03;;;;;;;1999.90;999.90;;;10.30;99.90;;;;;;5110599;27;20624;-79
2022/07/23 03:40:29;;;;;;;1999.90;999.90;;;10.30;99.90;;;;;;5105935;27;20046;-79
2022/07/23 03:42:55;;;;;;;1999.90;999.90;;;10.30;99.90;;;;;;5115218;27;20138;-79
2022/07/23 03:45:20;;;;;;;1999.90;999.90;;;10.20;99.90;;;;;;5094137;27;20038;-80
2022/07/23 03:47:46;;;;;;;1999.90;999.90;;;10.20;99.90;;;;;;5099567;27;20470;-79
2022/07/23 03:50:12;;;;;;;1999.90;999.90;;;10.20;99.90;;;;;;5121831;27;20035;-79
2022/07/23 03:52:37;;;;;;;1999.90;999.90;;;10.30;99.90;;;;;;5121294;27;20544;-79
2022/07/23 03:55:04;;;;;;;1999.90;999.90;;;10.30;99.90;;;;;;5125310;27;20079;-79
2022/07/23 03:57:30;;;;;;;1999.90;999.90;;;10.30;99.90;;;;;;5095076;27;20225;-79
2022/07/23 03:59:55;;;;;;;1999.90;999.90;;;10.30;99.90;;;;;;5111902;27;20565;-79
2022/07/23 04:02:21;;;;;;;1999.90;999.90;;;10.30;99.90;;;;;;5097199;27;20474;-79
2022/07/23 04:04:47;;;;;;;1999.90;999.90;;;10.40;99.90;;;;;;5100899;27;20407;-79
2022/07/23 04:07:13;;;;;;;1999.90;999.90;;;10.40;99.90;;;;;;5099713;27;20144;-79
2022/07/23 04:09:40;;;;;;;1999.90;999.90;;;10.40;99.90;;;;;;5113141;27;20039;-79
2022/07/23 04:12:06;;;;;;;1999.90;999.90;;;10.40;99.90;;;;;;5129444;27;20192;-79
2022/07/23 04:14:32;;;;;;;1999.90;999.90;;;10.50;99.90;;;;;;5125072;27;20037;-79
2022/07/23 04:16:59;;;;;;;1999.90;999.90;;;10.50;99.90;;;;;;5132669;27;20039;-79
2022/07/23 04:19:24;;;;;;;1999.90;999.90;;;10.60;99.90;;;;;;5133581;27;20043;-79
2022/07/23 04:21:50;;;;;;;1999.90;999.90;;;10.60;99.90;;;;;;5129811;27;20047;-79
2022/07/23 04:24:16;;;;;;;1999.90;999.90;;;10.70;99.90;;;;;;5093636;27;20357;-78
2022/07/23 04:26:41;;;;;;;1999.90;999.90;;;10.70;99.90;;;;;;5126588;27;20099;-79
2022/07/23 04:29:07;;;;;;;1999.90;999.90;;;10.70;99.90;;;;;;5100275;27;20077;-79
2022/07/23 04:31:33;;;;;;;1999.90;999.90;;;10.80;99.90;;;;;;5099606;27;20042;-79
2022/07/23 04:33:58;;;;;;;1999.90;999.90;;;10.90;99.90;;;;;;5102193;27;20398;-79
2022/07/23 04:36:24;;;;;;;1999.90;999.90;;;10.90;99.90;;;;;;5096442;27;20034;-79
2022/07/23 04:38:50;;;;;;;1999.90;999.90;;;11.00;99.90;;;;;;5112119;27;20496;-78
2022/07/23 04:41:15;;;;;;;1999.90;999.90;;;11.20;99.90;;;;;;5117919;27;20047;-78
2022/07/23 04:43:41;;;;;;;1999.90;999.90;;;11.30;99.90;;;;;;5131739;27;20037;-78
2022/07/23 04:46:07;;;;;;;1999.90;999.90;;;11.40;99.90;;;;;;5115678;27;20502;-78
2022/07/23 04:48:32;;;;;;;1999.90;999.90;;;11.50;99.90;;;;;;5109904;27;20050;-78
2022/07/23 04:50:58;;;;;;;1999.90;999.90;;;11.60;99.90;;;;;;5141956;27;20110;-79
2022/07/23 04:53:23;;;;;;;1999.90;999.90;;;11.60;99.90;;;;;;5130394;27;20038;-78
2022/07/23 04:55:49;;;;;;;1999.90;999.90;;;11.70;99.90;;;;;;5138473;27;20045;-78
2022/07/23 04:58:15;;;;;;;1999.90;999.90;;;11.70;99.90;;;;;;5140634;27;20110;-79
2022/07/23 05:00:40;;;;;;;1999.90;999.90;;;11.80;99.90;;;;;;5093926;27;20050;-79
2022/07/23 05:03:06;;;;;;;1999.90;999.90;;;11.80;99.90;;;;;;5111212;27;20395;-79
2022/07/23 05:05:32;;;;;;;1999.90;999.90;;;11.80;99.90;;;;;;5115069;27;20042;-79
2022/07/23 05:07:58;;;;;;;1999.90;999.90;;;11.80;99.90;;;;;;5098115;27;20103;-79
2022/07/23 05:10:23;;;;;;;1999.90;999.90;;;11.80;99.90;;;;;;5129843;27;20050;-79
2022/07/23 05:12:49;;;;;;;1999.90;999.90;;;11.90;99.90;;;;;;5133135;27;20475;-79
2022/07/23 05:15:14;;;;;;;1999.90;999.90;;;11.90;99.90;;;;;;5119257;27;20038;-79
2022/07/23 05:17:40;;;;;;;1999.90;999.90;;;11.90;99.90;;;;;;5135106;27;20042;-79
2022/07/23 05:20:06;;;;;;;1999.90;999.90;;;12.00;99.90;;;;;;5123905;27;20043;-79
2022/07/23 05:22:33;;;;;;;1999.90;999.90;;;12.00;99.90;;;;;;5102183;27;20202;-80
2022/07/23 05:24:58;;;;;;;1999.90;999.90;;;12.10;99.90;;;;;;5138625;27;20031;-79
2022/07/23 05:27:24;;;;;;;1999.90;999.90;;;12.20;99.90;;;;;;5133452;27;20103;-79
2022/07/23 05:29:50;;;;;;;1999.90;999.90;;;12.40;99.90;;;;;;5102566;27;20074;-79
2022/07/23 05:32:15;;;;;;;1999.90;999.90;;;12.50;99.90;;;;;;5095855;27;20036;-79
2022/07/23 05:34:41;;;;;;;1999.90;999.90;;;12.70;99.90;;;;;;5100694;27;20059;-79
2022/07/23 05:37:07;;;;;;;1999.90;999.90;;;12.80;99.90;;;;;;5123122;27;20046;-79
2022/07/23 05:39:32;;;;;;;1999.90;999.90;;;13.00;99.90;;;;;;5117923;27;20063;-79
2022/07/23 05:41:58;;;;;;;1999.90;999.90;;;13.20;99.90;;;;;;5116665;27;20047;-79
2022/07/23 05:44:24;;;;;;;1999.90;999.90;;;13.40;99.90;;;;;;5115548;27;20042;-79
2022/07/23 05:46:50;;;;;;;1999.90;999.90;;;13.90;99.90;;;;;;5133530;27;20118;-78
2022/07/23 05:49:15;;;;;;;1999.90;999.90;;;14.40;99.90;;;;;;5134720;27;20118;-79
2022/07/23 05:51:41;;;;;;;1999.90;999.90;;;14.70;99.90;;;;;;5117792;27;20081;-79
2022/07/23 05:54:06;;;;;;;1999.90;999.90;;;14.90;99.90;;;;;;5113474;27;20031;-79
2022/07/23 05:56:32;;;;;;;1999.90;999.90;;;15.00;99.90;;;;;;5111688;27;20381;-79
2022/07/23 05:58:58;;;;;;;1999.90;999.90;;;15.00;99.90;;;;;;5111134;27;20849;-79
2022/07/23 06:01:23;;;;;;;1999.90;999.90;;;15.10;99.90;;;;;;5134866;27;20039;-79
2022/07/23 06:03:49;;;;;;;1999.90;999.90;;;15.30;99.90;;;;;;5116374;27;20445;-80
2022/07/23 06:06:14;;;;;;;1999.90;999.90;;;15.50;99.90;;;;;;5094157;27;20509;-79
2022/07/23 06:08:40;;;;;;;1999.90;999.90;;;15.90;99.90;;;;;;5116817;27;20043;-78
2022/07/23 06:11:06;;;;;;;1999.90;999.90;;;16.40;99.90;;;;;;5109835;27;20501;-79
2022/07/23 06:13:31;;;;;;;1999.90;999.90;;;17.00;99.90;;;;;;5125307;27;20118;-79
2022/07/23 06:15:57;;;;;;;1999.90;999.90;;;17.90;99.90;;;;;;5130998;27;20074;-79
2022/07/23 06:18:22;;;;;;;1999.90;999.90;;;19.20;99.90;;;;;;5092635;27;20491;-79
2022/07/23 06:20:48;;;;;;;1999.90;999.90;;;20.10;99.90;;;;;;5116795;27;20096;-80
2022/07/23 06:23:14;;;;;;;1999.90;999.90;;;20.60;99.90;;;;;;5113757;27;20042;-80
2022/07/23 06:25:39;;;;;;;1999.90;999.90;;;21.00;99.90;;;;;;5118567;27;20045;-80
2022/07/23 06:28:05;;;;;;;1999.90;999.90;;;21.00;99.90;;;;;;5096461;27;20514;-80
2022/07/23 06:30:30;;;;;;;1999.90;999.90;;;21.10;99.90;;;;;;5107941;27;20046;-80
2022/07/23 06:32:56;;;;;;;1999.90;999.90;;;20.60;99.90;;;;;;5118007;27;20023;-79
2022/07/23 06:35:22;;;;;;;1999.90;999.90;;;20.00;99.90;;;;;;5097245;27;20038;-79
2022/07/23 06:37:48;;;;;;;1999.90;999.90;;;19.80;99.90;;;;;;5092902;27;20035;-79
2022/07/23 06:40:13;;;;;;;1999.90;999.90;;;20.30;99.90;;;;;;5110089;27;20051;-80
2022/07/23 06:42:39;;;;;;;1999.90;999.90;;;20.80;99.90;;;;;;5114792;27;20038;-80
2022/07/23 06:45:06;;;;;;;1999.90;999.90;;;21.40;99.90;;;;;;5098642;27;20050;-80
2022/07/23 06:47:32;;;;;;;1999.90;999.90;;;21.70;99.90;;;;;;5110312;27;20499;-81
2022/07/23 06:49:58;;;;;;;1999.90;999.90;;;21.40;99.90;;;;;;5122292;27;20043;-80
2022/07/23 06:52:23;;;;;;;1999.90;999.90;;;21.10;99.90;;;;;;5094875;27;20046;-80
2022/07/23 06:54:49;;;;;;;1999.90;999.90;;;21.20;99.90;;;;;;5132956;27;20391;-80
2022/07/23 06:57:15;;;;;;;1999.90;999.90;;;21.00;99.90;;;;;;5112822;27;20041;-80
2022/07/23 06:59:41;;;;;;;1999.90;999.90;;;20.30;99.90;;;;;;5094526;27;20039;-80
2022/07/23 07:02:08;;;;;;;1999.90;999.90;;;19.60;99.90;;;;;;5114734;27;20047;-80
2022/07/23 07:04:33;;;;;;;1999.90;999.90;;;19.20;99.90;;;;;;5088586;27;20122;-80
2022/07/23 07:06:59;;;;;;;1999.90;999.90;;;19.00;99.90;;;;;;5119465;27;20145;-79
2022/07/23 07:09:25;;;;;;;1999.90;999.90;;;19.50;99.90;;;;;;5133113;27;20043;-79
2022/07/23 07:11:51;;;;;;;1999.90;999.90;;;19.90;99.90;;;;;;5095517;27;20068;-80
2022/07/23 07:14:17;;;;;;;1999.90;999.90;;;19.70;99.90;;;;;;5114606;27;20510;-79
2022/07/23 07:16:42;;;;;;;1999.90;999.90;;;19.40;99.90;;;;;;5108485;27;20036;-80
2022/07/23 07:19:08;;;;;;;1999.90;999.90;;;19.50;99.90;;;;;;5093667;27;20049;-80
2022/07/23 07:21:34;;;;;;;1999.90;999.90;;;19.90;99.90;;;;;;5112780;27;20051;-80
2022/07/23 07:24:00;;;;;;;1999.90;999.90;;;20.80;99.90;;;;;;5108876;27;20034;-80
2022/07/23 07:26:25;;;;;;;1999.90;999.90;;;21.80;99.90;;;;;;5112819;27;20674;-80
2022/07/23 07:28:51;;;;;;;1999.90;999.90;;;22.60;99.90;;;;;;5114257;28;20039;-80
2022/07/23 07:31:16;;;;;;;1999.90;999.90;;;23.10;99.90;;;;;;5134027;27;20027;-80
2022/07/23 07:33:42;;;;;;;1999.90;999.90;;;23.40;99.90;;;;;;5113044;27;20088;-80
2022/07/23 07:36:08;;;;;;;1999.90;999.90;;;23.80;99.90;;;;;;5093092;27;20528;-80
2022/07/23 07:38:34;;;;;;;1999.90;999.90;;;24.20;99.90;;;;;;5108959;27;20502;-79
2022/07/23 07:40:59;;;;;;;1999.90;999.90;;;24.40;99.90;;;;;;5113572;27;20043;-79
2022/07/23 07:43:25;;;;;;;1999.90;999.90;;;24.20;99.90;;;;;;5097320;27;20038;-79
2022/07/23 07:45:51;;;;;;;1999.90;999.90;;;24.10;99.90;;;;;;5096295;27;20517;-80
2022/07/23 07:48:16;;;;;;;1999.90;999.90;;;23.60;99.90;;;;;;5115731;27;20410;-79
2022/07/23 07:50:42;;;;;;;1999.90;999.90;;;23.40;99.90;;;;;;5118031;27;20108;-79
2022/07/23 07:53:08;;;;;;;1999.90;999.90;;;22.90;99.90;;;;;;5124929;27;20486;-79
2022/07/23 07:55:34;;;;;;;1999.90;999.90;;;22.30;99.90;;;;;;5098535;27;20071;-78
2022/07/23 07:58:00;;;;;;;1999.90;999.90;;;21.80;97.90;;;;;;5140890;27;20576;-79
2022/07/23 08:00:26;;;;;;;1999.90;999.90;;;21.40;99.90;;;;;;5141051;27;20486;-79
2022/07/23 08:02:53;;;;;;;1999.90;999.90;;;21.20;99.90;;;;;;5101467;27;20124;-79
2022/07/23 08:05:24;;;;;;;1999.90;999.90;;;21.30;99.90;;;;;;5099930;27;20049;-79
2022/07/23 08:07:50;;;;;;;1999.90;999.90;;;21.30;99.90;;;;;;5124240;27;20126;-79
2022/07/23 08:10:16;;;;;;;1999.90;999.90;;;21.40;99.90;;;;;;5121304;27;20106;-78
2022/07/23 08:12:48;;;;;;;1999.90;999.90;;;21.30;99.90;;;;;;5140355;27;20068;-78
2022/07/23 08:15:18;;;;;;;1999.90;999.90;;;21.00;99.90;;;;;;5139743;27;20482;-78
2022/07/23 08:17:45;;;;;;;1999.90;999.90;;;20.70;99.90;;;;;;5128138;27;20486;-78
2022/07/23 08:20:13;;;;;;;1999.90;999.90;;;20.40;99.90;;;;;;5114337;27;20031;-78
2022/07/23 08:22:51;;;;;;;1999.90;999.90;;;20.10;99.90;;;;;;5128327;27;20035;-79
2022/07/23 08:25:28;;;;;;;1999.90;999.90;;;20.00;99.90;;;;;;5131436;27;20149;-79
2022/07/23 08:27:55;;;;;;;1999.90;999.90;;;20.10;99.90;;;;;;5132730;27;20042;-78
2022/07/23 08:30:21;;;;;;;1999.90;999.90;;;20.10;99.90;;;;;;5115334;27;20114;-79
2022/07/23 08:33:00;;;;;;;1999.90;999.90;;;20.20;99.90;;;;;;5131975;27;20424;-78
2022/07/23 08:35:27;;;;;;;1999.90;999.90;;;20.30;99.90;;;;;;5130524;27;20034;-79
2022/07/23 08:37:54;;;;;;;1999.90;999.90;;;20.40;99.90;;;;;;5114457;27;20387;-79
2022/07/23 08:40:21;;;;;;;1999.90;999.90;;;20.90;99.90;;;;;;5094307;27;20054;-79
2022/07/23 08:42:49;;;;;;;1999.90;999.90;;;21.10;99.90;;;;;;5095237;27;20432;-79
2022/07/23 08:45:19;;;;;;;1999.90;999.90;;;21.10;99.90;;;;;;5097740;27;20036;-79
2022/07/23 08:47:45;;;;;;;1999.90;999.90;;;21.20;99.90;;;;;;5133293;27;20379;-79
2022/07/23 08:50:10;;;;;;;1999.90;999.90;;;21.30;99.90;;;;;;5123445;27;20047;-79
2022/07/23 08:52:37;;;;;;;1999.90;999.90;;;21.10;99.90;;;;;;5133036;27;20134;-79
2022/07/23 08:55:03;;;;;;;1999.90;999.90;;;21.00;99.90;;;;;;5126213;27;20043;-78
2022/07/23 08:57:29;;;;;;;1999.90;999.90;;;20.90;99.90;;;;;;5109567;27;20491;-79
2022/07/23 08:59:55;;;;;;;1999.90;999.90;;;20.80;99.90;;;;;;5118599;27;20089;-78
2022/07/23 09:02:21;;;;;;;1999.90;999.90;;;20.50;99.90;;;;;;5113563;27;20038;-79
2022/07/23 09:04:48;;;;;;;1999.90;999.90;;;20.40;99.90;;;;;;5134764;27;20035;-79
2022/07/23 09:07:13;;;;;;;1999.90;999.90;;;20.30;99.90;;;;;;5112782;27;20035;-79
2022/07/23 09:09:39;;;;;;;1999.90;999.90;;;20.30;99.90;;;;;;5091894;27;20046;-78
2022/07/23 09:12:08;;;;;;;1999.90;999.90;;;20.30;99.90;;;;;;5085586;28;20042;-78
2022/07/23 09:14:48;;;;;;;1999.90;999.90;;;20.30;99.90;;;;;;5100786;27;20545;-78
2022/07/23 09:17:18;;;;;;;1999.90;999.90;;;20.10;99.90;;;;;;5104703;27;20039;-79
2022/07/23 09:19:45;;;;;;;1999.90;999.90;;;20.10;99.90;;;;;;5109469;27;20057;-78
2022/07/23 09:22:26;;;;;;;1999.90;999.90;;;20.10;99.90;;;;;;5105263;27;20043;-78
2022/07/23 09:25:13;;;;;;;1999.90;999.90;;;20.10;99.90;;;;;;5110204;27;20057;-79
2022/07/23 09:27:48;;;;;;;1999.90;999.90;;;20.20;99.90;;;;;;5116295;27;20587;-78
2022/07/23 09:30:15;;;;;;;1999.90;999.90;;;20.30;99.90;;;;;;5124131;27;20106;-78
2022/07/23 09:32:41;;;;;;;1999.90;999.90;;;20.50;99.90;;;;;;5121518;27;20396;-79
2022/07/23 09:35:07;;;;;;;1999.90;999.90;;;20.50;99.90;;;;;;5105860;27;20039;-79
2022/07/23 09:37:33;;;;;;;1999.90;999.90;;;20.60;99.90;;;;;;5124041;27;20553;-78
2022/07/23 09:40:11;;;;;;;1999.90;999.90;;;20.80;99.90;;;;;;5099912;27;20071;-79
2022/07/23 09:42:37;;;;;;;1999.90;999.90;;;21.20;99.90;;;;;;5100811;27;20191;-79
2022/07/23 09:45:04;;;;;;;1999.90;999.90;;;21.40;99.90;;;;;;5101878;27;20070;-80
2022/07/23 09:47:31;;;;;;;1999.90;999.90;;;21.30;99.90;;;;;;5104882;27;20035;-78
2022/07/23 09:50:08;;;;;;;1999.90;999.90;;;21.10;99.90;;;;;;5087853;27;20154;-79
2022/07/23 09:52:42;;;;;;;1999.90;999.90;;;20.80;99.90;;;;;;5104262;27;20452;-78
2022/07/23 09:55:08;;;;;;;1999.90;999.90;;;20.50;99.90;;;;;;5122774;27;20035;-78
2022/07/23 09:57:34;;;;;;;1999.90;999.90;;;20.30;99.90;;;;;;5107483;27;20043;-78
2022/07/23 10:00:08;;;;;;;1999.90;999.90;;;20.20;99.90;;;;;;5098860;27;20047;-78
2022/07/23 10:02:33;;;;;;;1999.90;999.90;;;20.10;99.90;;;;;;5083941;27;20028;-78
2022/07/23 10:05:01;;;;;;;1999.90;999.90;;;20.10;99.90;;;;;;5122127;27;20118;-78
2022/07/23 10:07:31;;;;;;;1999.90;999.90;;;20.00;99.90;;;;;;5083709;28;20040;-78
2022/07/23 10:09:58;;;;;;;1999.90;999.90;;;20.10;99.90;;;;;;5103344;27;20399;-79
2022/07/23 10:15:06;;;;;;;1999.90;999.90;;;20.40;99.90;;;;;;5115706;27;20403;-78
2022/07/23 10:17:32;;;;;;;1999.90;999.90;;;20.60;99.90;;;;;;5117607;27;20490;-79
2022/07/23 10:19:58;;;;;;;1999.90;999.90;;;20.80;99.90;;;;;;5114524;27;20036;-78
2022/07/23 10:22:28;;;;;;;1999.90;999.90;;;21.00;99.90;;;;;;5119102;27;20023;-79
2022/07/23 10:25:15;;;;;;;1999.90;999.90;;;21.00;99.90;;;;;;5106100;27;20055;-78
2022/07/23 10:28:07;;;;;;;1999.90;999.90;;;20.90;99.90;;;;;;5099178;27;20066;-78
2022/07/23 10:30:42;;;;;;;1999.90;999.90;;;20.60;99.90;;;;;;5122168;27;20086;-79
2022/07/23 10:33:50;;;;;;;1999.90;999.90;;;20.40;99.90;;;;;;5117776;27;20457;-78
2022/07/23 10:36:51;;;;;;;1999.90;999.90;;;20.30;99.90;;;;;;5117087;27;20050;-78
2022/07/23 10:39:23;;;;;;;1999.90;999.90;;;20.30;99.90;;;;;;4998457;28;21182;-78
2022/07/23 10:41:51;;;;;;;1999.90;999.90;;;20.40;99.90;;;;;;5091440;27;20082;-77
2022/07/23 10:44:23;;;;;;;1999.90;999.90;;;20.50;99.90;;;;;;5110400;28;20115;-78
2022/07/23 10:49:31;;;;;;;1999.90;999.90;;;20.50;99.90;;;;;;5132000;27;20387;-78
2022/07/23 10:52:15;;;;;;;1999.90;999.90;;;20.60;99.90;;;;;;5110543;28;20039;-79
2022/07/23 10:54:52;;;;;;;1999.90;999.90;;;20.50;99.90;;;;;;5108154;27;20066;-78
2022/07/23 10:57:21;;;;;;;1999.90;999.90;;;20.50;99.90;;;;;;5108819;27;20043;-78
2022/07/23 11:00:11;;;;;;;1999.90;999.90;;;20.30;99.90;;;;;;5109987;28;20125;-77
2022/07/23 11:02:39;;;;;;;1999.90;999.90;;;20.30;99.90;;;;;;5098543;28;20042;-78
2022/07/23 11:05:11;;;;;;;1999.90;999.90;;;20.20;99.90;;;;;;5087241;27;20039;-78
2022/07/23 11:08:02;;;;;;;1999.90;999.90;;;20.20;99.90;;;;;;5103838;27;20042;-78
2022/07/23 11:10:36;;;;;;;1999.90;999.90;;;20.20;99.90;;;;;;5112752;28;20039;-78
2022/07/23 11:13:27;;;;;;;1999.90;999.90;;;20.40;99.90;;;;;;5120058;27;20138;-78
2022/07/23 11:16:05;;;;;;;1999.90;999.90;;;20.50;99.90;;;;;;5111263;28;20092;-78
2022/07/23 11:18:40;;;;;;;1999.90;999.90;;;20.80;99.90;;;;;;5090653;28;20035;-79
2022/07/23 11:21:28;;;;;;;1999.90;999.90;;;21.10;99.90;;;;;;5100256;27;20091;-78
2022/07/23 11:23:58;;;;;;;1999.90;999.90;;;21.30;99.90;;;;;;5111348;27;20078;-78
2022/07/23 11:26:42;;;;;;;1999.90;999.90;;;21.50;99.90;;;;;;5103615;27;20031;-78
2022/07/23 11:29:33;;;;;;;1999.90;999.90;;;21.60;99.90;;;;;;5099611;27;20560;-79
2022/07/23 11:32:08;;;;;;;1999.90;999.90;;;21.60;99.90;;;;;;5110240;27;20031;-78
2022/07/23 11:34:48;;;;;;;1999.90;999.90;;;21.50;99.90;;;;;;5095964;27;20035;-79
2022/07/23 11:37:33;;;;;;;1999.90;999.90;;;21.70;99.90;;;;;;5096804;27;20082;-78
2022/07/23 11:40:00;;;;;;;1999.90;999.90;;;22.00;99.90;;;;;;5108310;27;20510;-77
2022/07/23 11:42:25;;;;;;;1999.90;999.90;;;22.40;99.90;;;;;;5120987;27;20425;-78
2022/07/23 11:44:52;;;;;;;1999.90;999.90;;;22.60;99.90;;;;;;5119587;27;20043;-76
2022/07/23 11:47:23;;;;;;;1999.90;999.90;;;22.70;99.90;;;;;;5111008;27;20153;-79
2022/07/23 11:49:54;;;;;;;1999.90;999.90;;;22.40;99.90;;;;;;5109442;27;20110;-78
2022/07/23 11:52:21;;;;;;;1999.90;999.90;;;22.20;99.90;;;;;;5100876;27;20034;-78
2022/07/23 11:55:16;;;;;;;1999.90;999.90;;;22.20;99.90;;;;;;5107668;27;20047;-78
2022/07/23 11:57:42;;;;;;;1999.90;999.90;;;22.30;99.90;;;;;;5109402;27;20134;-78
2022/07/23 12:00:14;;;;;;;1999.90;999.90;;;22.30;99.90;;;;;;5090049;27;20072;-78
2022/07/23 12:02:45;;;;;;;1999.90;999.90;;;22.40;99.90;;;;;;5113944;27;20035;-78
2022/07/23 12:05:19;;;;;;;1999.90;999.90;;;22.60;99.90;;;;;;5115123;27;20043;-78
2022/07/23 12:07:49;;;;;;;1999.90;999.90;;;23.10;99.90;;;;;;5112306;27;20031;-78